ADDS METAR Data INFO
IDs: Format: Raw Decoded Include TAF

Data at: 1827 UTC 24 Nov 2017

KTRL 241753Z AUTO 18009KT 10SM CLR 21/02 A2993 RMK AO2 SLP133 T02060022 10206 20050 58014
KTRL 241653Z AUTO 18008KT 10SM CLR 18/02 A2996 RMK AO2 SLP142 T01780022
KTRL 241553Z AUTO 19008KT 10SM CLR 15/02 A2997 RMK AO2 SLP147 T01500022
KTRL 241453Z AUTO 18007KT 10SM CLR 12/03 A2997 RMK AO2 SLP147 T01170028 58002
KTRL 241353Z AUTO 19003KT 10SM CLR 07/03 A2997 RMK AO2 SLP149 T00670028
KTRL 241253Z AUTO 00000KT 10SM CLR 06/02 A2999 RMK AO2 SLP154 T00560017
KTRL 241153Z AUTO 00000KT CLR 06/01 A2998 RMK AO2 SLP150 T00560011 10072 20044 56009 $
KTRL 241053Z AUTO 00000KT CLR 05/01 A2998 RMK AO2 SLP150 T00500011 $
KTRL 240953Z AUTO 00000KT CLR 04/01 A2999 RMK AO2 SLP155 T00440006 $
KTRL 240853Z AUTO 00000KT 10SM CLR 06/01 A3001 RMK AO2 SLP159 T00610006 56014 $
KTRL 240753Z AUTO 00000KT 10SM CLR 07/00 A3002 RMK AO2 SLP164 T00670000 $
KTRL 240653Z AUTO 00000KT 10SM CLR 06/00 A3003 RMK AO2 SLP167 T00560000 $
KTRL 240553Z AUTO 00000KT 10SM CLR 07/01 A3005 RMK AO2 SLP174 T00720006 10139 20067 401891011 58005 $
KTRL 240453Z AUTO 00000KT 10SM CLR 07/00 A3006 RMK AO2 SLP177 T00720000 $
KTRL 240353Z AUTO 00000KT 10SM CLR 09/M01 A3007 RMK AO2 SLP179 T00891006 $
KTRL 240253Z AUTO 00000KT 10SM CLR 09/M01 A3006 RMK AO2 SLP180 T00941006 50001 $
KTRL 240153Z AUTO 00000KT 10SM CLR 11/M01 A3007 RMK AO2 SLP183 T01061006 $
KTRL 240053Z AUTO 17004KT 10SM CLR 12/M01 A3006 RMK AO2 SLP180 T01221011 $
KTRL 232353Z AUTO 16004KT 10SM CLR 14/M02 A3006 RMK AO2 SLP179 T01391017 10189 20139 58003 $
KTRL 232253Z AUTO 18004KT 10SM CLR 17/M03 A3007 RMK AO2 SLP181 T01671028 $
KTRL 232153Z AUTO 15004KT 10SM CLR 18/M04 A3007 RMK AO2 SLP181 T01831039 $
KTRL 232053Z AUTO 19004KT 10SM CLR 18/M04 A3007 RMK AO2 SLP182 T01831044 56031 $
KTRL 231953Z AUTO 00000KT 10SM CLR 17/M04 A3010 RMK AO2 SLP191 T01721039 $
KTRL 231853Z AUTO 00000KT 10SM CLR 17/M04 A3012 RMK AO2 SLP198 T01671044 $
KTRL 231753Z AUTO 00000KT 10SM CLR 15/M04 A3017 RMK AO2 SLP215 T01501044 10150 21011 58018 $
KTRL 231653Z AUTO 00000KT 10SM CLR 13/M04 A3020 RMK AO2 SLP226 T01281044 $
KTRL 231553Z AUTO 00000KT 10SM CLR 11/M04 A3021 RMK AO2 SLP230 T01061039 $
KTRL 231453Z AUTO 00000KT 10SM CLR 07/M01 A3022 RMK AO2 SLP234 T00671006 51007 $
KTRL 231353Z AUTO 00000KT CLR 01/M02 A3021 RMK AO2 SLP232 T00111017 $
KTRL 231253Z AUTO 05003KT CLR M01/M03 A3021 RMK AO2 SLP229 T10061028 $
KTRL 231153Z AUTO 00000KT CLR 00/M03 A3020 RMK AO2 SLP227 T00001028 10017 21006 58009 $
KTRL 231053Z AUTO 00000KT CLR M01/M03 A3021 RMK AO2 SLP230 T10061028 $
KTRL 230953Z AUTO 00000KT CLR 00/M03 A3022 RMK AO2 SLP232 T00001028 $
KTRL 230853Z AUTO 00000KT CLR 01/M03 A3023 RMK AO2 SLP235 T00111028 58013 $
KTRL 230753Z AUTO 00000KT CLR 01/M03 A3024 RMK AO2 SLP240 T00111028 $
KTRL 230653Z AUTO 00000KT CLR 02/M02 A3026 RMK AO2 SLP246 T00171022 $